sensor_id;sensor_type;location;lat;lon;timestamp;temperature;humidity
15359;DHT22;7779;49.596;11.070;2023-04-08T00:01:02;5.80;53.90
15359;DHT22;7779;49.596;11.070;2023-04-08T00:03:27;5.70;53.90
15359;DHT22;7779;49.596;11.070;2023-04-08T00:05:53;5.70;53.90
15359;DHT22;7779;49.596;11.070;2023-04-08T00:08:19;5.60;53.90
15359;DHT22;7779;49.596;11.070;2023-04-08T00:10:45;5.60;53.90
15359;DHT22;7779;49.596;11.070;2023-04-08T00:13:10;5.50;54.00
15359;DHT22;7779;49.596;11.070;2023-04-08T00:15:36;5.50;54.00
15359;DHT22;7779;49.596;11.070;2023-04-08T00:18:02;5.40;54.10
15359;DHT22;7779;49.596;11.070;2023-04-08T00:20:28;5.40;54.10
15359;DHT22;7779;49.596;11.070;2023-04-08T00:22:53;5.40;54.20
15359;DHT22;7779;49.596;11.070;2023-04-08T00:25:19;5.30;54.30
15359;DHT22;7779;49.596;11.070;2023-04-08T00:27:45;5.20;54.30
15359;DHT22;7779;49.596;11.070;2023-04-08T00:30:11;5.20;54.30
15359;DHT22;7779;49.596;11.070;2023-04-08T00:32:36;5.10;54.40
15359;DHT22;7779;49.596;11.070;2023-04-08T00:35:03;5.10;54.50
15359;DHT22;7779;49.596;11.070;2023-04-08T00:37:29;5.00;54.50
15359;DHT22;7779;49.596;11.070;2023-04-08T00:39:55;5.00;54.60
15359;DHT22;7779;49.596;11.070;2023-04-08T00:42:21;4.90;54.60
15359;DHT22;7779;49.596;11.070;2023-04-08T00:44:47;4.90;56.10
15359;DHT22;7779;49.596;11.070;2023-04-08T00:47:13;4.80;54.70
15359;DHT22;7779;49.596;11.070;2023-04-08T00:49:41;4.80;54.80
15359;DHT22;7779;49.596;11.070;2023-04-08T00:52:07;4.70;54.90
15359;DHT22;7779;49.596;11.070;2023-04-08T00:54:35;4.70;54.90
15359;DHT22;7779;49.596;11.070;2023-04-08T00:57:03;4.70;55.10
15359;DHT22;7779;49.596;11.070;2023-04-08T00:59:30;4.60;55.10
15359;DHT22;7779;49.596;11.070;2023-04-08T01:02:44;4.60;55.20
15359;DHT22;7779;49.596;11.070;2023-04-08T01:05:27;4.60;56.60
15359;DHT22;7779;49.596;11.070;2023-04-08T01:08:06;4.60;55.50
15359;DHT22;7779;49.596;11.070;2023-04-08T01:10:36;4.60;55.50
15359;DHT22;7779;49.596;11.070;2023-04-08T01:13:13;4.50;57.00
15359;DHT22;7779;49.596;11.070;2023-04-08T01:15:43;4.50;55.90
15359;DHT22;7779;49.596;11.070;2023-04-08T01:18:12;4.50;57.20
15359;DHT22;7779;49.596;11.070;2023-04-08T01:20:41;4.50;55.80
15359;DHT22;7779;49.596;11.070;2023-04-08T01:23:15;4.50;56.10
15359;DHT22;7779;49.596;11.070;2023-04-08T01:25:49;4.60;56.60
15359;DHT22;7779;49.596;11.070;2023-04-08T01:28:17;4.60;56.10
15359;DHT22;7779;49.596;11.070;2023-04-08T01:30:45;4.60;56.10
15359;DHT22;7779;49.596;11.070;2023-04-08T01:33:14;4.60;56.20
15359;DHT22;7779;49.596;11.070;2023-04-08T01:35:42;4.60;56.20
15359;DHT22;7779;49.596;11.070;2023-04-08T01:38:12;4.60;56.20
15359;DHT22;7779;49.596;11.070;2023-04-08T01:40:41;4.60;56.20
15359;DHT22;7779;49.596;11.070;2023-04-08T01:43:10;4.60;56.20
15359;DHT22;7779;49.596;11.070;2023-04-08T01:45:39;4.60;56.30
15359;DHT22;7779;49.596;11.070;2023-04-08T01:48:05;4.60;56.30
15359;DHT22;7779;49.596;11.070;2023-04-08T01:50:32;4.60;56.40
15359;DHT22;7779;49.596;11.070;2023-04-08T01:53:00;4.70;56.50
15359;DHT22;7779;49.596;11.070;2023-04-08T01:55:27;4.70;56.60
15359;DHT22;7779;49.596;11.070;2023-04-08T01:57:55;4.70;56.60
15359;DHT22;7779;49.596;11.070;2023-04-08T02:00:28;4.70;56.70
15359;DHT22;7779;49.596;11.070;2023-04-08T02:02:56;4.70;56.80
15359;DHT22;7779;49.596;11.070;2023-04-08T02:05:23;4.70;56.70
15359;DHT22;7779;49.596;11.070;2023-04-08T02:07:49;4.80;56.80
15359;DHT22;7779;49.596;11.070;2023-04-08T02:10:15;4.80;56.80
15359;DHT22;7779;49.596;11.070;2023-04-08T02:12:42;4.80;56.90
15359;DHT22;7779;49.596;11.070;2023-04-08T02:15:09;4.90;56.90
15359;DHT22;7779;49.596;11.070;2023-04-08T02:18:10;4.90;56.90
15359;DHT22;7779;49.596;11.070;2023-04-08T02:20:45;4.90;58.20
15359;DHT22;7779;49.596;11.070;2023-04-08T02:23:19;4.90;57.00
15359;DHT22;7779;49.596;11.070;2023-04-08T02:25:49;4.90;57.00
15359;DHT22;7779;49.596;11.070;2023-04-08T02:28:18;4.90;56.70
15359;DHT22;7779;49.596;11.070;2023-04-08T02:30:49;5.00;56.90
15359;DHT22;7779;49.596;11.070;2023-04-08T02:33:18;4.90;56.90
15359;DHT22;7779;49.596;11.070;2023-04-08T02:35:48;5.00;56.90
15359;DHT22;7779;49.596;11.070;2023-04-08T02:38:15;5.00;57.00
15359;DHT22;7779;49.596;11.070;2023-04-08T02:40:42;5.00;57.00
15359;DHT22;7779;49.596;11.070;2023-04-08T02:43:08;5.00;57.10
15359;DHT22;7779;49.596;11.070;2023-04-08T02:45:41;5.00;57.10
15359;DHT22;7779;49.596;11.070;2023-04-08T02:48:08;5.00;57.50
15359;DHT22;7779;49.596;11.070;2023-04-08T02:50:34;5.10;57.10
15359;DHT22;7779;49.596;11.070;2023-04-08T02:53:00;5.10;57.10
15359;DHT22;7779;49.596;11.070;2023-04-08T02:55:27;5.10;57.20
15359;DHT22;7779;49.596;11.070;2023-04-08T02:57:53;5.10;57.20
15359;DHT22;7779;49.596;11.070;2023-04-08T03:00:18;5.10;57.20
15359;DHT22;7779;49.596;11.070;2023-04-08T03:02:44;5.10;57.20
15359;DHT22;7779;49.596;11.070;2023-04-08T03:05:10;5.20;57.30
15359;DHT22;7779;49.596;11.070;2023-04-08T03:07:36;5.20;57.90
15359;DHT22;7779;49.596;11.070;2023-04-08T03:10:03;5.20;57.30
15359;DHT22;7779;49.596;11.070;2023-04-08T03:12:29;5.20;57.30
15359;DHT22;7779;49.596;11.070;2023-04-08T03:14:55;5.20;57.20
15359;DHT22;7779;49.596;11.070;2023-04-08T03:17:21;5.30;57.30
15359;DHT22;7779;49.596;11.070;2023-04-08T03:19:47;5.30;57.30
15359;DHT22;7779;49.596;11.070;2023-04-08T03:22:12;5.20;57.20
15359;DHT22;7779;49.596;11.070;2023-04-08T03:24:38;5.30;57.30
15359;DHT22;7779;49.596;11.070;2023-04-08T03:27:05;5.30;57.30
15359;DHT22;7779;49.596;11.070;2023-04-08T03:29:31;5.30;57.30
15359;DHT22;7779;49.596;11.070;2023-04-08T03:31:57;5.20;57.30
15359;DHT22;7779;49.596;11.070;2023-04-08T03:34:22;5.30;57.40
15359;DHT22;7779;49.596;11.070;2023-04-08T03:36:48;5.30;57.40
15359;DHT22;7779;49.596;11.070;2023-04-08T03:39:14;5.30;57.50
15359;DHT22;7779;49.596;11.070;2023-04-08T03:41:39;5.30;57.50
15359;DHT22;7779;49.596;11.070;2023-04-08T03:44:05;5.30;57.50
15359;DHT22;7779;49.596;11.070;2023-04-08T03:46:31;5.30;58.70
15359;DHT22;7779;49.596;11.070;2023-04-08T03:48:56;5.30;57.60
15359;DHT22;7779;49.596;11.070;2023-04-08T03:51:22;5.30;57.60
15359;DHT22;7779;49.596;11.070;2023-04-08T03:53:48;5.40;57.70
15359;DHT22;7779;49.596;11.070;2023-04-08T03:56:14;5.40;57.80
15359;DHT22;7779;49.596;11.070;2023-04-08T03:58:40;5.40;57.70
15359;DHT22;7779;49.596;11.070;2023-04-08T04:01:06;5.50;57.80
15359;DHT22;7779;49.596;11.070;2023-04-08T04:03:32;5.50;57.90
15359;DHT22;7779;49.596;11.070;2023-04-08T04:05:57;5.50;57.90
15359;DHT22;7779;49.596;11.070;2023-04-08T04:08:23;5.50;58.00
15359;DHT22;7779;49.596;11.070;2023-04-08T04:10:49;5.60;58.10
15359;DHT22;7779;49.596;11.070;2023-04-08T04:13:16;5.60;58.10
15359;DHT22;7779;49.596;11.070;2023-04-08T04:15:42;5.60;58.00
15359;DHT22;7779;49.596;11.070;2023-04-08T04:18:07;5.60;58.00
15359;DHT22;7779;49.596;11.070;2023-04-08T04:20:33;5.70;58.10
15359;DHT22;7779;49.596;11.070;2023-04-08T04:22:59;5.70;58.10
15359;DHT22;7779;49.596;11.070;2023-04-08T04:25:25;5.70;58.10
15359;DHT22;7779;49.596;11.070;2023-04-08T04:27:51;5.70;58.20
15359;DHT22;7779;49.596;11.070;2023-04-08T04:30:16;5.80;58.30
15359;DHT22;7779;49.596;11.070;2023-04-08T04:32:44;5.80;58.30
15359;DHT22;7779;49.596;11.070;2023-04-08T04:35:11;5.80;58.30
15359;DHT22;7779;49.596;11.070;2023-04-08T04:37:37;5.90;58.30
15359;DHT22;7779;49.596;11.070;2023-04-08T04:40:04;5.90;58.30
15359;DHT22;7779;49.596;11.070;2023-04-08T04:42:30;5.90;58.30
15359;DHT22;7779;49.596;11.070;2023-04-08T04:44:57;5.90;58.30
15359;DHT22;7779;49.596;11.070;2023-04-08T04:47:24;6.00;58.40
15359;DHT22;7779;49.596;11.070;2023-04-08T04:49:50;6.00;58.40
15359;DHT22;7779;49.596;11.070;2023-04-08T04:52:16;6.10;58.40
15359;DHT22;7779;49.596;11.070;2023-04-08T04:54:42;6.10;58.40
15359;DHT22;7779;49.596;11.070;2023-04-08T04:57:08;6.20;58.30
15359;DHT22;7779;49.596;11.070;2023-04-08T04:59:35;6.20;58.20
15359;DHT22;7779;49.596;11.070;2023-04-08T05:02:01;6.30;58.20
15359;DHT22;7779;49.596;11.070;2023-04-08T05:04:27;6.30;58.10
15359;DHT22;7779;49.596;11.070;2023-04-08T05:06:53;6.40;58.10
15359;DHT22;7779;49.596;11.070;2023-04-08T05:09:19;6.40;58.00
15359;DHT22;7779;49.596;11.070;2023-04-08T05:11:45;6.50;58.00
15359;DHT22;7779;49.596;11.070;2023-04-08T05:14:10;6.50;58.00
15359;DHT22;7779;49.596;11.070;2023-04-08T05:16:36;6.60;58.00
15359;DHT22;7779;49.596;11.070;2023-04-08T05:19:03;6.60;58.00
15359;DHT22;7779;49.596;11.070;2023-04-08T05:21:29;6.60;57.90
15359;DHT22;7779;49.596;11.070;2023-04-08T05:23:54;6.70;57.90
15359;DHT22;7779;49.596;11.070;2023-04-08T05:26:20;6.70;57.80
15359;DHT22;7779;49.596;11.070;2023-04-08T05:28:47;6.70;57.80
15359;DHT22;7779;49.596;11.070;2023-04-08T05:31:17;6.80;57.80
15359;DHT22;7779;49.596;11.070;2023-04-08T05:33:44;6.80;57.80
15359;DHT22;7779;49.596;11.070;2023-04-08T05:36:10;6.90;57.80
15359;DHT22;7779;49.596;11.070;2023-04-08T05:38:37;6.90;57.80
15359;DHT22;7779;49.596;11.070;2023-04-08T05:41:04;6.90;57.90
15359;DHT22;7779;49.596;11.070;2023-04-08T05:43:32;7.00;58.00
15359;DHT22;7779;49.596;11.070;2023-04-08T05:45:58;7.00;58.00
15359;DHT22;7779;49.596;11.070;2023-04-08T05:48:23;7.00;58.00
15359;DHT22;7779;49.596;11.070;2023-04-08T05:50:49;7.00;58.00
15359;DHT22;7779;49.596;11.070;2023-04-08T05:53:15;7.10;58.10
15359;DHT22;7779;49.596;11.070;2023-04-08T05:55:41;7.10;58.20
15359;DHT22;7779;49.596;11.070;2023-04-08T05:58:07;7.20;58.20
15359;DHT22;7779;49.596;11.070;2023-04-08T06:00:33;7.10;58.30
15359;DHT22;7779;49.596;11.070;2023-04-08T06:02:59;7.20;58.40
15359;DHT22;7779;49.596;11.070;2023-04-08T06:05:24;7.20;58.40
15359;DHT22;7779;49.596;11.070;2023-04-08T06:07:50;7.20;58.40
15359;DHT22;7779;49.596;11.070;2023-04-08T06:10:16;7.30;58.50
15359;DHT22;7779;49.596;11.070;2023-04-08T06:12:42;7.30;58.60
15359;DHT22;7779;49.596;11.070;2023-04-08T06:15:08;7.30;58.60
15359;DHT22;7779;49.596;11.070;2023-04-08T06:17:37;7.30;58.60
15359;DHT22;7779;49.596;11.070;2023-04-08T06:20:07;7.30;58.80
15359;DHT22;7779;49.596;11.070;2023-04-08T06:22:36;7.30;58.90
15359;DHT22;7779;49.596;11.070;2023-04-08T06:25:02;7.30;58.80
15359;DHT22;7779;49.596;11.070;2023-04-08T06:27:28;7.30;58.90
15359;DHT22;7779;49.596;11.070;2023-04-08T06:29:54;7.30;59.10
15359;DHT22;7779;49.596;11.070;2023-04-08T06:32:21;7.30;59.10
15359;DHT22;7779;49.596;11.070;2023-04-08T06:34:47;7.30;59.20
15359;DHT22;7779;49.596;11.070;2023-04-08T06:37:13;7.30;59.20
15359;DHT22;7779;49.596;11.070;2023-04-08T06:39:39;7.30;59.30
15359;DHT22;7779;49.596;11.070;2023-04-08T06:42:05;7.30;59.40
15359;DHT22;7779;49.596;11.070;2023-04-08T06:44:38;7.30;59.30
15359;DHT22;7779;49.596;11.070;2023-04-08T06:47:04;7.30;60.70
15359;DHT22;7779;49.596;11.070;2023-04-08T06:49:30;7.30;59.40
15359;DHT22;7779;49.596;11.070;2023-04-08T06:51:56;7.30;59.50
15359;DHT22;7779;49.596;11.070;2023-04-08T06:54:21;7.30;59.60
15359;DHT22;7779;49.596;11.070;2023-04-08T06:56:47;7.30;59.70
15359;DHT22;7779;49.596;11.070;2023-04-08T06:59:13;7.30;59.90
15359;DHT22;7779;49.596;11.070;2023-04-08T07:01:39;7.30;60.00
15359;DHT22;7779;49.596;11.070;2023-04-08T07:04:05;7.40;60.20
15359;DHT22;7779;49.596;11.070;2023-04-08T07:06:31;7.40;60.30
15359;DHT22;7779;49.596;11.070;2023-04-08T07:08:56;7.40;60.40
15359;DHT22;7779;49.596;11.070;2023-04-08T07:11:22;7.40;60.60
15359;DHT22;7779;49.596;11.070;2023-04-08T07:13:48;7.40;60.70
15359;DHT22;7779;49.596;11.070;2023-04-08T07:16:13;7.50;60.70
15359;DHT22;7779;49.596;11.070;2023-04-08T07:18:39;7.50;60.60
15359;DHT22;7779;49.596;11.070;2023-04-08T07:21:06;7.50;60.50
15359;DHT22;7779;49.596;11.070;2023-04-08T07:23:32;7.60;60.50
15359;DHT22;7779;49.596;11.070;2023-04-08T07:26:02;7.60;60.50
15359;DHT22;7779;49.596;11.070;2023-04-08T07:28:30;7.60;60.70
15359;DHT22;7779;49.596;11.070;2023-04-08T07:30:56;7.60;60.70
15359;DHT22;7779;49.596;11.070;2023-04-08T07:33:21;7.60;60.80
15359;DHT22;7779;49.596;11.070;2023-04-08T07:35:48;7.60;60.90
15359;DHT22;7779;49.596;11.070;2023-04-08T07:38:15;7.60;60.80
15359;DHT22;7779;49.596;11.070;2023-04-08T07:40:41;7.70;60.80
15359;DHT22;7779;49.596;11.070;2023-04-08T07:43:07;7.70;60.90
15359;DHT22;7779;49.596;11.070;2023-04-08T07:45:33;7.70;60.80
15359;DHT22;7779;49.596;11.070;2023-04-08T07:47:59;7.70;60.60
15359;DHT22;7779;49.596;11.070;2023-04-08T07:50:25;7.70;60.60
15359;DHT22;7779;49.596;11.070;2023-04-08T07:52:51;7.60;60.50
15359;DHT22;7779;49.596;11.070;2023-04-08T07:55:17;7.70;60.60
15359;DHT22;7779;49.596;11.070;2023-04-08T07:57:43;7.70;60.70
15359;DHT22;7779;49.596;11.070;2023-04-08T08:00:09;7.70;60.70
15359;DHT22;7779;49.596;11.070;2023-04-08T08:02:41;7.60;60.70
15359;DHT22;7779;49.596;11.070;2023-04-08T08:05:07;7.60;60.50
15359;DHT22;7779;49.596;11.070;2023-04-08T08:07:33;7.60;60.50
15359;DHT22;7779;49.596;11.070;2023-04-08T08:09:58;7.60;60.50
15359;DHT22;7779;49.596;11.070;2023-04-08T08:12:24;7.60;60.60
15359;DHT22;7779;49.596;11.070;2023-04-08T08:14:50;7.60;60.70
15359;DHT22;7779;49.596;11.070;2023-04-08T08:17:19;7.60;60.90
15359;DHT22;7779;49.596;11.070;2023-04-08T08:19:45;7.60;60.90
15359;DHT22;7779;49.596;11.070;2023-04-08T08:22:11;7.60;60.90
15359;DHT22;7779;49.596;11.070;2023-04-08T08:24:36;7.60;61.10
15359;DHT22;7779;49.596;11.070;2023-04-08T08:27:02;7.60;61.10
15359;DHT22;7779;49.596;11.070;2023-04-08T08:29:30;7.70;61.20
15359;DHT22;7779;49.596;11.070;2023-04-08T08:31:56;7.60;61.10
15359;DHT22;7779;49.596;11.070;2023-04-08T08:34:22;7.70;61.20
15359;DHT22;7779;49.596;11.070;2023-04-08T08:36:48;7.70;62.60
15359;DHT22;7779;49.596;11.070;2023-04-08T08:39:13;7.70;61.50
15359;DHT22;7779;49.596;11.070;2023-04-08T08:41:39;7.80;61.70
15359;DHT22;7779;49.596;11.070;2023-04-08T08:44:07;7.80;61.70
15359;DHT22;7779;49.596;11.070;2023-04-08T08:46:34;7.90;62.80
15359;DHT22;7779;49.596;11.070;2023-04-08T08:49:00;7.90;61.80
15359;DHT22;7779;49.596;11.070;2023-04-08T08:51:27;8.00;61.90
15359;DHT22;7779;49.596;11.070;2023-04-08T08:53:54;8.00;62.00
15359;DHT22;7779;49.596;11.070;2023-04-08T08:56:20;8.10;63.00
15359;DHT22;7779;49.596;11.070;2023-04-08T08:58:46;8.10;62.00
15359;DHT22;7779;49.596;11.070;2023-04-08T09:01:36;8.20;61.90
15359;DHT22;7779;49.596;11.070;2023-04-08T09:04:17;8.20;62.50
15359;DHT22;7779;49.596;11.070;2023-04-08T09:06:45;8.20;63.10
15359;DHT22;7779;49.596;11.070;2023-04-08T09:09:14;8.30;61.80
15359;DHT22;7779;49.596;11.070;2023-04-08T09:11:45;8.30;61.70
15359;DHT22;7779;49.596;11.070;2023-04-08T09:14:21;8.30;62.00
15359;DHT22;7779;49.596;11.070;2023-04-08T09:16:49;8.40;62.30
15359;DHT22;7779;49.596;11.070;2023-04-08T09:19:16;8.40;61.80
15359;DHT22;7779;49.596;11.070;2023-04-08T09:21:42;8.40;61.90
15359;DHT22;7779;49.596;11.070;2023-04-08T09:24:08;8.40;61.90
15359;DHT22;7779;49.596;11.070;2023-04-08T09:26:51;8.50;62.10
15359;DHT22;7779;49.596;11.070;2023-04-08T09:29:16;8.50;62.20
15359;DHT22;7779;49.596;11.070;2023-04-08T09:31:42;8.60;62.40
15359;DHT22;7779;49.596;11.070;2023-04-08T09:34:15;8.60;62.40
15359;DHT22;7779;49.596;11.070;2023-04-08T09:36:43;8.70;63.00
15359;DHT22;7779;49.596;11.070;2023-04-08T09:39:10;8.80;63.00
15359;DHT22;7779;49.596;11.070;2023-04-08T09:41:37;8.80;62.30
15359;DHT22;7779;49.596;11.070;2023-04-08T09:44:09;8.90;62.20
15359;DHT22;7779;49.596;11.070;2023-04-08T09:46:41;8.90;62.00
15359;DHT22;7779;49.596;11.070;2023-04-08T09:49:28;8.90;61.90
15359;DHT22;7779;49.596;11.070;2023-04-08T09:52:07;9.00;62.10
15359;DHT22;7779;49.596;11.070;2023-04-08T09:55:00;9.00;62.20
15359;DHT22;7779;49.596;11.070;2023-04-08T09:57:40;9.10;62.70
15359;DHT22;7779;49.596;11.070;2023-04-08T10:00:17;9.10;62.30
15359;DHT22;7779;49.596;11.070;2023-04-08T10:03:10;9.20;62.50
15359;DHT22;7779;49.596;11.070;2023-04-08T10:05:42;9.30;61.60
15359;DHT22;7779;49.596;11.070;2023-04-08T10:08:09;9.30;62.20
15359;DHT22;7779;49.596;11.070;2023-04-08T10:10:37;9.40;62.10
15359;DHT22;7779;49.596;11.070;2023-04-08T10:13:06;9.40;62.00
15359;DHT22;7779;49.596;11.070;2023-04-08T10:15:35;9.50;62.00
15359;DHT22;7779;49.596;11.070;2023-04-08T10:23:16;9.60;62.00
15359;DHT22;7779;49.596;11.070;2023-04-08T10:25:46;9.60;62.30
15359;DHT22;7779;49.596;11.070;2023-04-08T10:30:51;9.70;61.60
15359;DHT22;7779;49.596;11.070;2023-04-08T10:33:21;9.80;62.40
15359;DHT22;7779;49.596;11.070;2023-04-08T10:36:00;9.90;62.70
15359;DHT22;7779;49.596;11.070;2023-04-08T10:38:37;10.00;61.70
15359;DHT22;7779;49.596;11.070;2023-04-08T10:41:03;10.10;62.00
15359;DHT22;7779;49.596;11.070;2023-04-08T10:43:33;10.30;62.40
15359;DHT22;7779;49.596;11.070;2023-04-08T10:46:00;10.40;62.60
15359;DHT22;7779;49.596;11.070;2023-04-08T10:48:26;10.60;62.70
15359;DHT22;7779;49.596;11.070;2023-04-08T10:50:56;10.80;62.70
15359;DHT22;7779;49.596;11.070;2023-04-08T10:53:36;11.00;62.50
15359;DHT22;7779;49.596;11.070;2023-04-08T10:56:08;11.20;61.30
15359;DHT22;7779;49.596;11.070;2023-04-08T10:58:50;11.20;61.40
15359;DHT22;7779;49.596;11.070;2023-04-08T11:01:18;11.30;61.10
15359;DHT22;7779;49.596;11.070;2023-04-08T11:03:44;11.40;60.90
15359;DHT22;7779;49.596;11.070;2023-04-08T11:06:10;11.50;60.80
15359;DHT22;7779;49.596;11.070;2023-04-08T11:08:36;11.60;60.60
15359;DHT22;7779;49.596;11.070;2023-04-08T11:11:06;11.70;60.60
15359;DHT22;7779;49.596;11.070;2023-04-08T11:13:40;11.70;60.50
15359;DHT22;7779;49.596;11.070;2023-04-08T11:16:07;11.80;60.50
15359;DHT22;7779;49.596;11.070;2023-04-08T11:18:34;11.90;60.30
15359;DHT22;7779;49.596;11.070;2023-04-08T11:21:02;11.90;60.00
15359;DHT22;7779;49.596;11.070;2023-04-08T11:23:28;12.00;59.80
15359;DHT22;7779;49.596;11.070;2023-04-08T11:25:54;12.00;59.00
15359;DHT22;7779;49.596;11.070;2023-04-08T11:28:21;12.00;59.40
15359;DHT22;7779;49.596;11.070;2023-04-08T11:30:47;12.00;59.20
15359;DHT22;7779;49.596;11.070;2023-04-08T11:33:13;12.00;59.00
15359;DHT22;7779;49.596;11.070;2023-04-08T11:35:40;11.90;58.60
15359;DHT22;7779;49.596;11.070;2023-04-08T11:38:08;11.80;58.40
15359;DHT22;7779;49.596;11.070;2023-04-08T11:40:34;11.80;58.40
15359;DHT22;7779;49.596;11.070;2023-04-08T11:43:11;11.70;58.40
15359;DHT22;7779;49.596;11.070;2023-04-08T11:45:40;11.70;58.70
15359;DHT22;7779;49.596;11.070;2023-04-08T11:48:14;11.70;58.70
15359;DHT22;7779;49.596;11.070;2023-04-08T11:50:41;11.70;58.80
15359;DHT22;7779;49.596;11.070;2023-04-08T11:53:19;11.70;58.90
15359;DHT22;7779;49.596;11.070;2023-04-08T11:55:47;11.70;59.20
15359;DHT22;7779;49.596;11.070;2023-04-08T11:58:13;11.70;59.20
15359;DHT22;7779;49.596;11.070;2023-04-08T12:00:39;11.80;59.30
15359;DHT22;7779;49.596;11.070;2023-04-08T12:03:06;11.80;59.30
15359;DHT22;7779;49.596;11.070;2023-04-08T12:05:32;11.80;59.10
15359;DHT22;7779;49.596;11.070;2023-04-08T12:07:58;11.90;58.90
15359;DHT22;7779;49.596;11.070;2023-04-08T12:10:23;11.90;58.60
15359;DHT22;7779;49.596;11.070;2023-04-08T12:12:50;11.80;58.40
15359;DHT22;7779;49.596;11.070;2023-04-08T12:15:16;11.80;58.30
15359;DHT22;7779;49.596;11.070;2023-04-08T12:17:42;11.80;58.30
15359;DHT22;7779;49.596;11.070;2023-04-08T12:20:09;11.70;58.20
15359;DHT22;7779;49.596;11.070;2023-04-08T12:22:35;11.70;58.20
15359;DHT22;7779;49.596;11.070;2023-04-08T12:25:01;11.70;58.20
15359;DHT22;7779;49.596;11.070;2023-04-08T12:27:29;11.60;58.00
15359;DHT22;7779;49.596;11.070;2023-04-08T12:29:58;11.60;58.40
15359;DHT22;7779;49.596;11.070;2023-04-08T12:32:25;11.60;58.40
15359;DHT22;7779;49.596;11.070;2023-04-08T12:34:51;11.60;58.30
15359;DHT22;7779;49.596;11.070;2023-04-08T12:37:17;11.60;58.30
15359;DHT22;7779;49.596;11.070;2023-04-08T12:39:43;11.60;58.40
15359;DHT22;7779;49.596;11.070;2023-04-08T12:42:08;11.60;58.50
15359;DHT22;7779;49.596;11.070;2023-04-08T12:44:34;11.60;58.70
15359;DHT22;7779;49.596;11.070;2023-04-08T12:47:00;11.60;58.40
15359;DHT22;7779;49.596;11.070;2023-04-08T12:49:26;11.70;58.80
15359;DHT22;7779;49.596;11.070;2023-04-08T12:51:52;11.70;58.70
15359;DHT22;7779;49.596;11.070;2023-04-08T12:54:18;11.70;58.70
15359;DHT22;7779;49.596;11.070;2023-04-08T12:56:44;11.80;58.70
15359;DHT22;7779;49.596;11.070;2023-04-08T12:59:11;11.80;58.60
15359;DHT22;7779;49.596;11.070;2023-04-08T13:01:36;11.90;58.50
15359;DHT22;7779;49.596;11.070;2023-04-08T13:04:02;11.90;58.40
15359;DHT22;7779;49.596;11.070;2023-04-08T13:06:28;12.00;58.30
15359;DHT22;7779;49.596;11.070;2023-04-08T13:08:54;12.00;58.20
15359;DHT22;7779;49.596;11.070;2023-04-08T13:11:19;12.10;58.10
15359;DHT22;7779;49.596;11.070;2023-04-08T13:13:45;12.10;57.80
15359;DHT22;7779;49.596;11.070;2023-04-08T13:16:12;12.20;57.80
15359;DHT22;7779;49.596;11.070;2023-04-08T13:18:39;12.20;57.60
15359;DHT22;7779;49.596;11.070;2023-04-08T13:21:06;12.30;57.30
15359;DHT22;7779;49.596;11.070;2023-04-08T13:23:32;12.30;57.30
15359;DHT22;7779;49.596;11.070;2023-04-08T13:25:58;12.30;57.10
15359;DHT22;7779;49.596;11.070;2023-04-08T13:28:23;12.30;57.10
15359;DHT22;7779;49.596;11.070;2023-04-08T13:30:49;12.40;57.00
15359;DHT22;7779;49.596;11.070;2023-04-08T13:33:15;12.40;56.90
15359;DHT22;7779;49.596;11.070;2023-04-08T13:35:41;12.50;56.80
15359;DHT22;7779;49.596;11.070;2023-04-08T13:38:07;12.50;56.60
15359;DHT22;7779;49.596;11.070;2023-04-08T13:40:34;12.50;56.50
15359;DHT22;7779;49.596;11.070;2023-04-08T13:43:00;12.50;56.30
15359;DHT22;7779;49.596;11.070;2023-04-08T13:45:26;12.60;56.30
15359;DHT22;7779;49.596;11.070;2023-04-08T13:47:52;12.60;56.10
15359;DHT22;7779;49.596;11.070;2023-04-08T13:50:17;12.60;56.20
15359;DHT22;7779;49.596;11.070;2023-04-08T13:52:43;12.60;56.20
15359;DHT22;7779;49.596;11.070;2023-04-08T13:55:09;12.60;56.10
15359;DHT22;7779;49.596;11.070;2023-04-08T13:57:34;12.70;56.20
15359;DHT22;7779;49.596;11.070;2023-04-08T14:00:01;12.70;56.10
15359;DHT22;7779;49.596;11.070;2023-04-08T14:02:26;12.80;55.90
15359;DHT22;7779;49.596;11.070;2023-04-08T14:04:52;12.80;55.60
15359;DHT22;7779;49.596;11.070;2023-04-08T14:07:18;12.80;55.40
15359;DHT22;7779;49.596;11.070;2023-04-08T14:09:44;12.90;55.50
15359;DHT22;7779;49.596;11.070;2023-04-08T14:12:10;12.90;55.50
15359;DHT22;7779;49.596;11.070;2023-04-08T14:14:36;12.90;55.30
15359;DHT22;7779;49.596;11.070;2023-04-08T14:17:01;12.90;55.00
15359;DHT22;7779;49.596;11.070;2023-04-08T14:19:28;12.90;54.80
15359;DHT22;7779;49.596;11.070;2023-04-08T14:21:53;12.90;54.80
15359;DHT22;7779;49.596;11.070;2023-04-08T14:24:19;12.90;54.70
15359;DHT22;7779;49.596;11.070;2023-04-08T14:26:45;12.90;53.60
15359;DHT22;7779;49.596;11.070;2023-04-08T14:29:11;12.90;54.60
15359;DHT22;7779;49.596;11.070;2023-04-08T14:31:36;12.90;54.50
15359;DHT22;7779;49.596;11.070;2023-04-08T14:34:02;12.90;54.50
15359;DHT22;7779;49.596;11.070;2023-04-08T14:36:28;12.90;54.60
15359;DHT22;7779;49.596;11.070;2023-04-08T14:38:55;12.90;54.60
15359;DHT22;7779;49.596;11.070;2023-04-08T14:41:21;12.80;54.50
15359;DHT22;7779;49.596;11.070;2023-04-08T14:43:47;12.80;54.50
15359;DHT22;7779;49.596;11.070;2023-04-08T14:46:13;12.80;54.50
15359;DHT22;7779;49.596;11.070;2023-04-08T14:48:39;12.80;54.60
15359;DHT22;7779;49.596;11.070;2023-04-08T14:51:05;12.80;54.50
15359;DHT22;7779;49.596;11.070;2023-04-08T14:53:32;12.80;54.60
15359;DHT22;7779;49.596;11.070;2023-04-08T14:55:58;12.80;54.50
15359;DHT22;7779;49.596;11.070;2023-04-08T14:58:24;12.90;54.60
15359;DHT22;7779;49.596;11.070;2023-04-08T15:00:50;12.80;54.40
15359;DHT22;7779;49.596;11.070;2023-04-08T15:03:16;12.80;54.40
15359;DHT22;7779;49.596;11.070;2023-04-08T15:05:54;12.80;54.40
15359;DHT22;7779;49.596;11.070;2023-04-08T15:08:20;12.80;54.30
15359;DHT22;7779;49.596;11.070;2023-04-08T15:10:46;12.80;54.30
15359;DHT22;7779;49.596;11.070;2023-04-08T15:13:12;12.70;54.20
15359;DHT22;7779;49.596;11.070;2023-04-08T15:15:38;12.70;54.40
15359;DHT22;7779;49.596;11.070;2023-04-08T15:18:03;12.70;54.40
15359;DHT22;7779;49.596;11.070;2023-04-08T15:20:29;12.70;54.30
15359;DHT22;7779;49.596;11.070;2023-04-08T15:22:55;12.70;54.20
15359;DHT22;7779;49.596;11.070;2023-04-08T15:25:21;12.60;54.10
15359;DHT22;7779;49.596;11.070;2023-04-08T15:27:47;12.60;54.10
15359;DHT22;7779;49.596;11.070;2023-04-08T15:30:13;12.50;54.10
15359;DHT22;7779;49.596;11.070;2023-04-08T15:32:39;12.50;54.20
15359;DHT22;7779;49.596;11.070;2023-04-08T15:35:06;12.50;54.10
15359;DHT22;7779;49.596;11.070;2023-04-08T15:37:32;12.50;54.20
15359;DHT22;7779;49.596;11.070;2023-04-08T15:39:58;12.50;54.20
15359;DHT22;7779;49.596;11.070;2023-04-08T15:42:24;12.50;54.10
15359;DHT22;7779;49.596;11.070;2023-04-08T15:44:49;12.50;54.20
15359;DHT22;7779;49.596;11.070;2023-04-08T15:47:15;12.50;54.20
15359;DHT22;7779;49.596;11.070;2023-04-08T15:49:41;12.40;54.10